Fairmount Springs, Pennsylvania
Current Conditions -  °F | °C
As of 10:15 AM on Thursday 23 Oct 2014 (Local Time) from KHZL Reporting Station
Drizzle Drizzle  
Wind Chill: 37°   Ceiling: 300
Heat Index: 43°   Visibility: 2.5mi
Dew Point: 43°   Wind: 9mph
Humidity: 100%   Direction: 320°NW
Pressure: 29.89"   Gusts: 17mph
Location:  41.2534°N, 76.3299°W
Report Text: KHZL 231415Z AUTO 32008G15KT 2 1/2SM DZ OVC003 06/06 A2989 RMK AO2 P0001
Loading
Personal Weather Stations






























Interactive Weather Map
Tropical Storm Tracking
New forecast layout! Learn more

10-Day Weather Forecast

Advertisements
Track Severe Weather on mobile